Time;durP1;ratioP1;P1;durP2;ratioP2;P2;SDS_P1;SDS_P2;PMS_P1;PMS_P2;Temp;Humidity;BMP_temperature;BMP_pressure;BME280_temperature;BME280_humidity;BME280_pressure;Samples;Min_cycle;Max_cycle;Signal;HPM_P1;HPM_P2
2023/02/26 00:01:21;;;;;;;;;;;;;;;;;;4974270;28;20032;-66
2023/02/26 00:03:46;;;;;;;;;;;;;;;;;;5250054;23;19933;-69
2023/02/26 00:06:14;;;;;;;;;;;;;;;;;;4966630;28;20728;-68
2023/02/26 00:08:42;;;;;;;;;;;;;;;;;;4983305;28;20433;-68
2023/02/26 00:11:07;;;;;;;;;;;;;;;;;;4978300;28;22431;-67
2023/02/26 00:13:33;;;;;;;;;;;;;;;;;;4966647;28;19940;-68
2023/02/26 00:15:58;;;;;;;;;;;;;;;;;;4969871;28;19917;-68
2023/02/26 00:18:29;;;;;;;;;;;;;;;;;;4969169;28;20019;-66
2023/02/26 00:20:54;;;;;;;;;;;;;;;;;;4954675;28;20040;-67
2023/02/26 00:23:20;;;;;;;;;;;;;;;;;;4970289;28;21863;-67
2023/02/26 00:29:01;;;;;;;;;;;;;;;;;;4987998;28;20044;-67
2023/02/26 00:31:29;;;;;;;;;;;;;;;;;;4985423;28;19921;-68
2023/02/26 00:33:57;;;;;;;;;;;;;;;;;;4968899;28;19929;-67
2023/02/26 00:36:22;;;;;;;;;;;;;;;;;;4986972;28;19917;-68
2023/02/26 00:38:47;;;;;;;;;;;;;;;;;;4987510;28;19952;-68
2023/02/26 00:41:14;;;;;;;;;;;;;;;;;;4970968;28;19924;-68
2023/02/26 00:43:39;;;;;;;;;;;;;;;;;;4981695;28;19975;-68
2023/02/26 00:46:07;;;;;;;;;;;;;;;;;;4971517;28;19922;-70
2023/02/26 00:48:33;;;;;;;;;;;;;;;;;;4968287;28;19932;-68
2023/02/26 00:50:58;;;;;;;;;;;;;;;;;;4952886;28;19921;-67
2023/02/26 00:53:27;;;;;;;;;;;;;;;;;;4965409;28;19924;-67
2023/02/26 00:55:52;;;;;;;;;;;;;;;;;;4966104;28;19925;-72
2023/02/26 00:58:18;;;;;;;;;;;;;;;;;;4984776;28;19921;-70
2023/02/26 01:00:43;;;;;;;;;;;;;;;;;;4971084;28;20016;-68
2023/02/26 01:03:11;;;;;;;;;;;;;;;;;;4939585;28;19962;-67
2023/02/26 01:05:42;;;;;;;;;;;;;;;;;;4957588;28;19936;-67
2023/02/26 01:08:10;;;;;;;;;;;;;;;;;;4955683;28;20682;-68
2023/02/26 01:10:37;;;;;;;;;;;;;;;;;;4966072;28;20357;-66
2023/02/26 01:13:05;;;;;;;;;;;;;;;;;;4950684;28;20312;-68
2023/02/26 01:15:31;;;;;;;;;;;;;;;;;;4970064;28;20016;-67
2023/02/26 01:17:59;;;;;;;;;;;;;;;;;;4950385;28;19924;-68
2023/02/26 01:20:25;;;;;;;;;;;;;;;;;;4967015;28;19990;-66
2023/02/26 01:22:53;;;;;;;;;;;;;;;;;;4958094;28;20568;-68
2023/02/26 01:25:18;;;;;;;;;;;;;;;;;;4954563;28;19990;-67
2023/02/26 01:27:45;;;;;;;;;;;;;;;;;;4973922;28;19922;-67
2023/02/26 01:30:10;;;;;;;;;;;;;;;;;;4950675;28;19932;-66
2023/02/26 01:32:35;;;;;;;;;;;;;;;;;;4953953;28;19949;-67
2023/02/26 01:35:01;;;;;;;;;;;;;;;;;;4972838;28;21205;-66
2023/02/26 01:37:36;;;;;;;;;;;;;;;;;;4974147;28;19924;-67
2023/02/26 01:40:03;;;;;;;;;;;;;;;;;;4953354;28;19921;-65
2023/02/26 01:42:28;;;;;;;;;;;;;;;;;;4951292;28;19955;-66
2023/02/26 01:44:54;;;;;;;;;;;;;;;;;;4952622;28;19921;-66
2023/02/26 01:47:19;;;;;;;;;;;;;;;;;;4950326;28;19922;-66
2023/02/26 01:49:49;;;;;;;;;;;;;;;;;;4955793;28;19945;-66
2023/02/26 01:52:15;;;;;;;;;;;;;;;;;;4949275;28;19933;-66
2023/02/26 01:54:40;;;;;;;;;;;;;;;;;;4951335;28;19917;-65
2023/02/26 01:57:05;;;;;;;;;;;;;;;;;;4956287;28;19928;-67
2023/02/26 01:59:31;;;;;;;;;;;;;;;;;;4947228;28;19917;-66
2023/02/26 02:01:56;;;;;;;;;;;;;;;;;;4962890;28;20439;-66
2023/02/26 02:04:21;;;;;;;;;;;;;;;;;;4948594;28;20457;-66
2023/02/26 02:06:49;;;;;;;;;;;;;;;;;;4944671;28;21796;-67
2023/02/26 02:09:17;;;;;;;;;;;;;;;;;;4953921;28;19926;-66
2023/02/26 02:11:54;;;;;;;;;;;;;;;;;;4951068;28;20406;-66
2023/02/26 02:14:48;;;;;;;;;;;;;;;;;;4954759;28;19929;-66
2023/02/26 02:17:13;;;;;;;;;;;;;;;;;;4951911;28;19922;-66
2023/02/26 02:19:39;;;;;;;;;;;;;;;;;;4966856;28;20447;-65
2023/02/26 02:22:07;;;;;;;;;;;;;;;;;;4966547;28;19929;-65
2023/02/26 02:24:38;;;;;;;;;;;;;;;;;;4952455;28;20008;-67
2023/02/26 02:27:06;;;;;;;;;;;;;;;;;;4966326;28;19925;-66
2023/02/26 02:29:32;;;;;;;;;;;;;;;;;;4952694;28;19931;-66
2023/02/26 02:31:57;;;;;;;;;;;;;;;;;;4964371;28;19918;-65
2023/02/26 02:34:22;;;;;;;;;;;;;;;;;;4968450;28;20187;-66
2023/02/26 02:36:48;;;;;;;;;;;;;;;;;;4949558;28;20297;-65
2023/02/26 02:39:13;;;;;;;;;;;;;;;;;;4951849;28;19991;-64
2023/02/26 02:41:38;;;;;;;;;;;;;;;;;;4966058;28;19917;-65
2023/02/26 02:44:03;;;;;;;;;;;;;;;;;;4954157;28;19917;-65
2023/02/26 02:46:34;;;;;;;;;;;;;;;;;;4972163;28;19928;-65
2023/02/26 02:48:59;;;;;;;;;;;;;;;;;;4951285;28;19974;-65
2023/02/26 02:51:27;;;;;;;;;;;;;;;;;;4955191;28;19929;-65
2023/02/26 02:53:55;;;;;;;;;;;;;;;;;;4954049;28;19914;-64
2023/02/26 02:56:22;;;;;;;;;;;;;;;;;;4969399;28;20213;-64
2023/02/26 02:58:48;;;;;;;;;;;;;;;;;;4971687;28;20407;-64
2023/02/26 03:01:16;;;;;;;;;;;;;;;;;;4965745;28;20184;-64
2023/02/26 03:03:41;;;;;;;;;;;;;;;;;;4967758;28;21562;-64
2023/02/26 03:06:09;;;;;;;;;;;;;;;;;;4924392;28;20403;-64
2023/02/26 03:08:35;;;;;;;;;;;;;;;;;;4932214;28;19981;-64
2023/02/26 03:11:00;;;;;;;;;;;;;;;;;;4934632;28;20361;-64
2023/02/26 03:13:25;;;;;;;;;;;;;;;;;;4931873;28;20810;-64
2023/02/26 03:15:50;;;;;;;;;;;;;;;;;;4935071;28;19961;-64
2023/02/26 03:18:18;;;;;;;;;;;;;;;;;;4929408;28;20405;-65
2023/02/26 03:20:46;;;;;;;;;;;;;;;;;;4934199;28;19945;-64
2023/02/26 03:23:11;;;;;;;;;;;;;;;;;;4946036;28;20357;-65
2023/02/26 03:25:39;;;;;;;;;;;;;;;;;;4946672;28;19922;-63
2023/02/26 03:28:04;;;;;;;;;;;;;;;;;;4915231;28;19932;-63
2023/02/26 03:30:30;;;;;;;;;;;;;;;;;;4933216;28;19925;-64
2023/02/26 03:32:55;;;;;;;;;;;;;;;;;;4934291;28;20377;-64
2023/02/26 03:35:23;;;;;;;;;;;;;;;;;;4934952;28;20396;-63
2023/02/26 03:37:48;;;;;;;;;;;;;;;;;;4932629;28;21835;-63
2023/02/26 03:40:13;;;;;;;;;;;;;;;;;;4948303;28;19958;-62
2023/02/26 03:42:38;;;;;;;;;;;;;;;;;;4951412;28;19945;-62
2023/02/26 03:45:06;;;;;;;;;;;;;;;;;;4932606;28;20360;-63
2023/02/26 03:47:32;;;;;;;;;;;;;;;;;;4953692;28;19917;-61
2023/02/26 03:49:59;;;;;;;;;;;;;;;;;;4936711;28;19960;-62
2023/02/26 03:52:25;;;;;;;;;;;;;;;;;;4956431;28;19918;-62
2023/02/26 03:54:54;;;;;;;;;;;;;;;;;;4952468;28;20059;-63
2023/02/26 03:57:20;;;;;;;;;;;;;;;;;;4930044;28;19922;-63
2023/02/26 03:59:48;;;;;;;;;;;;;;;;;;4936471;28;20649;-64
2023/02/26 04:02:16;;;;;;;;;;;;;;;;;;4937535;28;19976;-62
2023/02/26 04:04:41;;;;;;;;;;;;;;;;;;4968235;28;20341;-63
2023/02/26 04:07:09;;;;;;;;;;;;;;;;;;4964290;28;20248;-63
2023/02/26 04:09:34;;;;;;;;;;;;;;;;;;4958567;28;19925;-63
2023/02/26 04:12:02;;;;;;;;;;;;;;;;;;4954542;28;19924;-62
2023/02/26 04:14:27;;;;;;;;;;;;;;;;;;4971311;28;19918;-62
2023/02/26 04:16:55;;;;;;;;;;;;;;;;;;4973612;28;19993;-62
2023/02/26 04:19:22;;;;;;;;;;;;;;;;;;4956152;28;19917;-61
2023/02/26 04:21:48;;;;;;;;;;;;;;;;;;4974733;28;20335;-62
2023/02/26 04:24:15;;;;;;;;;;;;;;;;;;4972745;28;19918;-61
2023/02/26 04:26:41;;;;;;;;;;;;;;;;;;4972926;28;20391;-62
2023/02/26 04:29:08;;;;;;;;;;;;;;;;;;4955360;28;19980;-62
2023/02/26 04:31:34;;;;;;;;;;;;;;;;;;4957179;28;20036;-62
2023/02/26 04:33:59;;;;;;;;;;;;;;;;;;4969900;28;20673;-62
2023/02/26 04:36:27;;;;;;;;;;;;;;;;;;4954484;28;19922;-62
2023/02/26 04:38:58;;;;;;;;;;;;;;;;;;4946142;28;19985;-62
2023/02/26 04:41:26;;;;;;;;;;;;;;;;;;4968375;28;20464;-61
2023/02/26 04:43:54;;;;;;;;;;;;;;;;;;4968545;28;19922;-61
2023/02/26 04:46:19;;;;;;;;;;;;;;;;;;4967751;28;20264;-62
2023/02/26 04:48:45;;;;;;;;;;;;;;;;;;4954190;28;19922;-62
2023/02/26 04:51:10;;;;;;;;;;;;;;;;;;4952945;28;19925;-62
2023/02/26 04:53:35;;;;;;;;;;;;;;;;;;4956447;28;19928;-62
2023/02/26 04:56:01;;;;;;;;;;;;;;;;;;4973560;28;19921;-61
2023/02/26 04:58:26;;;;;;;;;;;;;;;;;;4967396;28;19929;-61
2023/02/26 05:00:54;;;;;;;;;;;;;;;;;;4966837;28;19941;-60
2023/02/26 05:03:19;;;;;;;;;;;;;;;;;;4953343;28;20373;-61
2023/02/26 05:05:45;;;;;;;;;;;;;;;;;;4953434;28;20020;-61
2023/02/26 05:08:13;;;;;;;;;;;;;;;;;;4969193;28;19992;-62
2023/02/26 05:10:38;;;;;;;;;;;;;;;;;;4952743;28;19925;-61
2023/02/26 05:13:03;;;;;;;;;;;;;;;;;;4954504;28;20024;-61
2023/02/26 05:15:32;;;;;;;;;;;;;;;;;;4947680;28;19989;-61
2023/02/26 05:17:57;;;;;;;;;;;;;;;;;;4972048;28;19928;-61
2023/02/26 05:20:25;;;;;;;;;;;;;;;;;;4973526;28;19917;-60
2023/02/26 05:22:52;;;;;;;;;;;;;;;;;;4949366;28;19928;-61
2023/02/26 05:25:20;;;;;;;;;;;;;;;;;;4971357;28;19922;-62
2023/02/26 05:27:45;;;;;;;;;;;;;;;;;;4973459;28;19933;-61
2023/02/26 05:30:11;;;;;;;;;;;;;;;;;;4951440;28;20304;-62
2023/02/26 05:32:36;;;;;;;;;;;;;;;;;;4951722;28;19924;-61
2023/02/26 05:35:04;;;;;;;;;;;;;;;;;;4971048;28;19969;-61
2023/02/26 05:37:29;;;;;;;;;;;;;;;;;;4951181;28;20456;-64
2023/02/26 05:39:54;;;;;;;;;;;;;;;;;;4968997;28;20554;-61
2023/02/26 05:42:22;;;;;;;;;;;;;;;;;;4936550;28;19924;-60
2023/02/26 05:44:48;;;;;;;;;;;;;;;;;;4952102;28;19925;-61
2023/02/26 05:47:13;;;;;;;;;;;;;;;;;;4954968;28;20292;-63
2023/02/26 05:49:38;;;;;;;;;;;;;;;;;;4953490;28;20285;-61
2023/02/26 05:52:06;;;;;;;;;;;;;;;;;;4955171;28;20004;-63
2023/02/26 05:54:31;;;;;;;;;;;;;;;;;;4968536;28;20157;-63
2023/02/26 05:56:56;;;;;;;;;;;;;;;;;;4954953;28;19933;-61
2023/02/26 05:59:24;;;;;;;;;;;;;;;;;;4951629;28;19933;-63
2023/02/26 06:01:50;;;;;;;;;;;;;;;;;;4967731;28;19917;-62
2023/02/26 06:04:18;;;;;;;;;;;;;;;;;;4954027;28;20115;-62
2023/02/26 06:06:43;;;;;;;;;;;;;;;;;;4951385;28;20004;-62
2023/02/26 06:09:11;;;;;;;;;;;;;;;;;;4954115;28;20024;-62
2023/02/26 06:11:38;;;;;;;;;;;;;;;;;;4955027;28;20830;-61
2023/02/26 06:14:06;;;;;;;;;;;;;;;;;;4970054;28;19929;-62
2023/02/26 06:16:34;;;;;;;;;;;;;;;;;;4972161;28;19918;-63
2023/02/26 06:18:59;;;;;;;;;;;;;;;;;;4969825;28;19944;-61
2023/02/26 06:21:25;;;;;;;;;;;;;;;;;;4972734;28;20424;-62
2023/02/26 06:23:52;;;;;;;;;;;;;;;;;;4950984;28;22250;-62
2023/02/26 06:26:18;;;;;;;;;;;;;;;;;;4969406;28;20225;-62
2023/02/26 06:28:45;;;;;;;;;;;;;;;;;;4969234;28;19918;-62
2023/02/26 06:31:11;;;;;;;;;;;;;;;;;;4954853;28;19983;-63
2023/02/26 06:33:39;;;;;;;;;;;;;;;;;;4952223;28;19928;-62
2023/02/26 06:36:04;;;;;;;;;;;;;;;;;;4972802;28;19921;-62
2023/02/26 06:38:32;;;;;;;;;;;;;;;;;;4946661;28;19921;-63
2023/02/26 06:41:00;;;;;;;;;;;;;;;;;;4954777;28;19918;-63
2023/02/26 06:43:28;;;;;;;;;;;;;;;;;;4972165;28;20381;-61
2023/02/26 06:45:53;;;;;;;;;;;;;;;;;;4944222;28;20403;-62
2023/02/26 06:48:21;;;;;;;;;;;;;;;;;;4971343;28;20008;-61
2023/02/26 06:50:49;;;;;;;;;;;;;;;;;;4968686;28;19961;-62
2023/02/26 06:53:15;;;;;;;;;;;;;;;;;;4966996;28;20075;-62
2023/02/26 06:55:40;;;;;;;;;;;;;;;;;;4967204;28;19940;-62
2023/02/26 06:58:07;;;;;;;;;;;;;;;;;;4971159;28;19928;-63
2023/02/26 07:00:36;;;;;;;;;;;;;;;;;;4971914;28;19933;-60
2023/02/26 07:03:07;;;;;;;;;;;;;;;;;;4968155;28;19918;-62
2023/02/26 07:05:32;;;;;;;;;;;;;;;;;;4966269;28;20403;-61
2023/02/26 07:07:58;;;;;;;;;;;;;;;;;;4970913;28;20504;-62
2023/02/26 07:10:24;;;;;;;;;;;;;;;;;;4972785;28;20064;-62
2023/02/26 07:13:10;;;;;;;;;;;;;;;;;;4955037;28;19923;-61
2023/02/26 07:15:35;;;;;;;;;;;;;;;;;;4953901;28;19964;-62
2023/02/26 07:18:06;;;;;;;;;;;;;;;;;;4962767;28;19952;-62
2023/02/26 07:20:36;;;;;;;;;;;;;;;;;;4952803;28;19917;-62
2023/02/26 07:23:05;;;;;;;;;;;;;;;;;;4962951;28;19918;-62
2023/02/26 07:25:31;;;;;;;;;;;;;;;;;;4955197;28;20188;-62
2023/02/26 07:28:02;;;;;;;;;;;;;;;;;;4961861;28;20336;-62
2023/02/26 07:30:34;;;;;;;;;;;;;;;;;;4982463;28;19917;-62
2023/02/26 07:36:09;;;;;;;;;;;;;;;;;;5091901;23;19928;-62
2023/02/26 07:38:42;;;;;;;;;;;;;;;;;;5056141;28;21065;-62
2023/02/26 07:48:09;;;;;;;;;;;;;;;;;;5019277;28;19919;-61
2023/02/26 07:50:38;;;;;;;;;;;;;;;;;;5076427;28;19969;-62
2023/02/26 07:53:56;;;;;;;;;;;;;;;;;;5018932;28;19968;-64
2023/02/26 08:05:10;;;;;;;;;;;;;;;;;;5086674;28;19916;-63
2023/02/26 08:07:36;;;;;;;;;;;;;;;;;;5070989;28;19966;-64
2023/02/26 08:10:01;;;;;;;;;;;;;;;;;;5025898;28;20027;-63
2023/02/26 08:12:27;;;;;;;;;;;;;;;;;;5070556;28;19975;-63
2023/02/26 08:14:58;;;;;;;;;;;;;;;;;;5050313;28;20256;-63
2023/02/26 08:17:39;;;;;;;;;;;;;;;;;;5047138;28;19942;-63
2023/02/26 08:20:08;;;;;;;;;;;;;;;;;;5075618;28;19916;-62
2023/02/26 08:22:49;;;;;;;;;;;;;;;;;;5059442;28;19989;-62
2023/02/26 08:37:54;;;;;;;;;;;;;;;;;;5006370;28;20128;-64
2023/02/26 08:40:34;;;;;;;;;;;;;;;;;;;;;
2023/02/26 08:43:06;;;;;;;;;;;;;;;;;;4969567;28;19957;-64
2023/02/26 08:45:34;;;;;;;;;;;;;;;;;;5014167;23;19944;-64
2023/02/26 08:48:01;;;;;;;;;;;;;;;;;;4985401;28;19921;-63
2023/02/26 08:50:27;;;;;;;;;;;;;;;;;;4983507;28;20241;-64
2023/02/26 08:52:52;;;;;;;;;;;;;;;;;;4984858;28;19928;-64
2023/02/26 08:55:20;;;;;;;;;;;;;;;;;;4985701;28;19925;-65
2023/02/26 08:57:45;;;;;;;;;;;;;;;;;;4985541;28;19921;-65
2023/02/26 09:00:15;;;;;;;;;;;;;;;;;;5001904;28;19986;-65
2023/02/26 09:02:40;;;;;;;;;;;;;;;;;;4977883;28;19932;-65
2023/02/26 09:05:08;;;;;;;;;;;;;;;;;;4986740;28;20593;-64
2023/02/26 09:07:34;;;;;;;;;;;;;;;;;;5002538;28;19921;-65
2023/02/26 09:09:59;;;;;;;;;;;;;;;;;;4978297;28;20470;-65
2023/02/26 09:12:24;;;;;;;;;;;;;;;;;;5004908;28;20400;-68
2023/02/26 09:14:52;;;;;;;;;;;;;;;;;;4985881;28;19917;-65
2023/02/26 09:17:17;;;;;;;;;;;;;;;;;;5004431;28;20332;-65
2023/02/26 09:19:42;;;;;;;;;;;;;;;;;;4983827;28;19921;-66
2023/02/26 09:22:08;;;;;;;;;;;;;;;;;;5002436;28;20410;-66
2023/02/26 09:24:35;;;;;;;;;;;;;;;;;;5003734;28;20128;-69
2023/02/26 09:27:02;;;;;;;;;;;;;;;;;;4980444;28;19988;-67
2023/02/26 09:29:27;;;;;;;;;;;;;;;;;;5004270;28;19917;-69
2023/02/26 09:31:52;;;;;;;;;;;;;;;;;;4984698;28;20219;-68
2023/02/26 09:34:19;;;;;;;;;;;;;;;;;;4973368;28;20410;-67
2023/02/26 09:36:47;;;;;;;;;;;;;;;;;;4982906;28;19994;-67
2023/02/26 09:39:12;;;;;;;;;;;;;;;;;;4978872;28;19925;-66
2023/02/26 09:41:40;;;;;;;;;;;;;;;;;;4963199;28;19924;-67
2023/02/26 09:44:08;;;;;;;;;;;;;;;;;;4980367;28;22160;-68
2023/02/26 09:46:34;;;;;;;;;;;;;;;;;;4958681;28;19930;-67
2023/02/26 09:48:59;;;;;;;;;;;;;;;;;;4940000;28;19921;-72
2023/02/26 09:51:26;;;;;;;;;;;;;;;;;;4956061;28;19932;-67
2023/02/26 09:53:53;;;;;;;;;;;;;;;;;;4956793;28;19980;-68
2023/02/26 09:56:19;;;;;;;;;;;;;;;;;;4936860;28;20535;-69
2023/02/26 09:58:44;;;;;;;;;;;;;;;;;;4953995;28;19921;-70
2023/02/26 10:01:12;;;;;;;;;;;;;;;;;;4951066;28;19922;-69
2023/02/26 10:03:40;;;;;;;;;;;;;;;;;;4954537;28;19929;-69
2023/02/26 10:06:05;;;;;;;;;;;;;;;;;;4952465;28;21358;-69
2023/02/26 10:08:31;;;;;;;;;;;;;;;;;;4935101;28;20014;-65
2023/02/26 10:10:57;;;;;;;;;;;;;;;;;;4953433;28;20359;-69
2023/02/26 10:13:22;;;;;;;;;;;;;;;;;;4950314;28;20411;-70
2023/02/26 10:15:48;;;;;;;;;;;;;;;;;;4954682;28;19969;-69
2023/02/26 10:18:13;;;;;;;;;;;;;;;;;;4933905;28;19922;-69
2023/02/26 10:20:38;;;;;;;;;;;;;;;;;;4937200;28;20012;-68
2023/02/26 10:23:04;;;;;;;;;;;;;;;;;;4954028;28;19928;-70
2023/02/26 10:25:29;;;;;;;;;;;;;;;;;;4948442;28;20210;-71
2023/02/26 10:27:55;;;;;;;;;;;;;;;;;;4920095;28;20799;-67
2023/02/26 10:30:23;;;;;;;;;;;;;;;;;;4951808;28;19984;-69
2023/02/26 10:32:49;;;;;;;;;;;;;;;;;;4938886;28;22198;-69
2023/02/26 10:35:14;;;;;;;;;;;;;;;;;;4956974;28;20642;-70
2023/02/26 10:37:40;;;;;;;;;;;;;;;;;;4955507;28;19925;-69
2023/02/26 10:40:08;;;;;;;;;;;;;;;;;;4954665;28;20370;-71
2023/02/26 10:42:33;;;;;;;;;;;;;;;;;;4938399;28;20477;-69
2023/02/26 10:44:58;;;;;;;;;;;;;;;;;;4957682;28;19921;-74
2023/02/26 10:47:27;;;;;;;;;;;;;;;;;;4973748;28;19965;-72
2023/02/26 10:49:52;;;;;;;;;;;;;;;;;;4975876;28;19921;-71
2023/02/26 10:52:20;;;;;;;;;;;;;;;;;;4960307;28;19953;-73
2023/02/26 10:54:45;;;;;;;;;;;;;;;;;;4958815;28;19960;-71
2023/02/26 10:57:10;;;;;;;;;;;;;;;;;;4976909;28;21405;-72
2023/02/26 10:59:36;;;;;;;;;;;;;;;;;;4975959;28;20082;-73
2023/02/26 11:02:01;;;;;;;;;;;;;;;;;;4974706;28;19925;-72
2023/02/26 11:04:27;;;;;;;;;;;;;;;;;;4973853;28;19922;-72
2023/02/26 11:06:53;;;;;;;;;;;;;;;;;;4955177;28;19922;-72
2023/02/26 11:09:19;;;;;;;;;;;;;;;;;;4960809;28;20804;-72
2023/02/26 11:11:44;;;;;;;;;;;;;;;;;;4973256;28;19947;-72
2023/02/26 11:14:10;;;;;;;;;;;;;;;;;;4974090;28;20349;-72
2023/02/26 11:16:39;;;;;;;;;;;;;;;;;;4972220;28;20363;-71
2023/02/26 11:19:07;;;;;;;;;;;;;;;;;;4973210;28;20316;-70
2023/02/26 11:21:32;;;;;;;;;;;;;;;;;;4975782;28;21260;-73
2023/02/26 11:23:58;;;;;;;;;;;;;;;;;;4968899;28;19929;-76
2023/02/26 11:26:26;;;;;;;;;;;;;;;;;;4971924;28;20114;-71
2023/02/26 11:28:51;;;;;;;;;;;;;;;;;;4956971;28;20243;-73
2023/02/26 11:31:16;;;;;;;;;;;;;;;;;;4971860;28;20013;-74
2023/02/26 11:33:44;;;;;;;;;;;;;;;;;;4956108;28;19988;-71
2023/02/26 11:36:11;;;;;;;;;;;;;;;;;;4975046;28;19929;-74
2023/02/26 11:38:37;;;;;;;;;;;;;;;;;;4961734;28;19925;-72
2023/02/26 11:41:08;;;;;;;;;;;;;;;;;;4954663;28;19925;-73
2023/02/26 11:43:33;;;;;;;;;;;;;;;;;;4970146;28;19940;-74
2023/02/26 11:45:59;;;;;;;;;;;;;;;;;;4956365;28;20342;-72
2023/02/26 11:48:25;;;;;;;;;;;;;;;;;;4971151;28;20016;-72
2023/02/26 11:50:51;;;;;;;;;;;;;;;;;;4973810;28;20247;-73
2023/02/26 11:53:16;;;;;;;;;;;;;;;;;;4973987;28;19964;-70
2023/02/26 11:55:46;;;;;;;;;;;;;;;;;;4957572;28;19928;-74
2023/02/26 11:58:12;;;;;;;;;;;;;;;;;;4942632;28;19928;-70
2023/02/26 12:00:37;;;;;;;;;;;;;;;;;;4975010;28;20589;-72
2023/02/26 12:03:03;;;;;;;;;;;;;;;;;;4973649;28;20280;-70
2023/02/26 12:05:28;;;;;;;;;;;;;;;;;;4969712;28;21607;-72
2023/02/26 12:07:54;;;;;;;;;;;;;;;;;;4951738;28;20648;-72
2023/02/26 12:10:19;;;;;;;;;;;;;;;;;;4959679;28;19921;-74
2023/02/26 12:12:45;;;;;;;;;;;;;;;;;;4960817;28;19928;-72
2023/02/26 12:15:10;;;;;;;;;;;;;;;;;;4965571;28;19917;-72
2023/02/26 12:17:36;;;;;;;;;;;;;;;;;;4974288;28;20246;-72
2023/02/26 12:20:06;;;;;;;;;;;;;;;;;;4978557;28;19926;-72
2023/02/26 12:22:32;;;;;;;;;;;;;;;;;;4962876;28;19925;-73
2023/02/26 12:24:57;;;;;;;;;;;;;;;;;;4962459;28;20319;-75
2023/02/26 12:27:22;;;;;;;;;;;;;;;;;;4979255;28;20533;-72
2023/02/26 12:29:48;;;;;;;;;;;;;;;;;;4962232;28;20085;-72
2023/02/26 12:32:16;;;;;;;;;;;;;;;;;;4979662;28;19921;-75
2023/02/26 12:34:41;;;;;;;;;;;;;;;;;;4962416;28;20345;-73
2023/02/26 12:37:06;;;;;;;;;;;;;;;;;;4976584;28;19933;-74
2023/02/26 12:39:32;;;;;;;;;;;;;;;;;;4972246;28;19940;-72
2023/02/26 12:41:59;;;;;;;;;;;;;;;;;;4959769;28;20877;-71
2023/02/26 12:44:28;;;;;;;;;;;;;;;;;;4977177;28;20037;-71
2023/02/26 12:46:53;;;;;;;;;;;;;;;;;;4975266;28;19986;-73
2023/02/26 12:49:19;;;;;;;;;;;;;;;;;;4980281;28;19968;-73
2023/02/26 12:51:48;;;;;;;;;;;;;;;;;;4956331;28;19918;-72
2023/02/26 12:54:13;;;;;;;;;;;;;;;;;;4978767;28;20000;-73
2023/02/26 12:56:42;;;;;;;;;;;;;;;;;;4976872;28;19932;-71
2023/02/26 12:59:07;;;;;;;;;;;;;;;;;;4960168;28;20179;-70
2023/02/26 13:01:33;;;;;;;;;;;;;;;;;;4979414;28;20465;-70
2023/02/26 13:03:59;;;;;;;;;;;;;;;;;;4961654;28;19922;-73
2023/02/26 13:06:24;;;;;;;;;;;;;;;;;;4961646;28;19932;-76
2023/02/26 13:08:50;;;;;;;;;;;;;;;;;;4960763;28;19922;-74
2023/02/26 13:11:15;;;;;;;;;;;;;;;;;;4977244;28;19917;-73
2023/02/26 13:13:41;;;;;;;;;;;;;;;;;;4979609;28;19977;-74
2023/02/26 13:16:06;;;;;;;;;;;;;;;;;;4979348;28;20392;-73
2023/02/26 13:18:31;;;;;;;;;;;;;;;;;;4979358;28;20274;-72
2023/02/26 13:20:59;;;;;;;;;;;;;;;;;;4980412;28;20599;-72
2023/02/26 13:23:24;;;;;;;;;;;;;;;;;;4973855;28;20220;-73
2023/02/26 13:25:51;;;;;;;;;;;;;;;;;;4967408;28;20304;-72
2023/02/26 13:28:19;;;;;;;;;;;;;;;;;;4961285;28;19917;-72
2023/02/26 13:30:44;;;;;;;;;;;;;;;;;;4978089;28;19944;-73
2023/02/26 13:33:10;;;;;;;;;;;;;;;;;;4973079;28;20086;-72
2023/02/26 13:35:36;;;;;;;;;;;;;;;;;;4976293;28;19921;-71
2023/02/26 13:38:01;;;;;;;;;;;;;;;;;;4974011;28;19999;-73
2023/02/26 13:40:27;;;;;;;;;;;;;;;;;;4958414;28;20368;-73
2023/02/26 13:42:53;;;;;;;;;;;;;;;;;;4957506;28;20403;-72
2023/02/26 13:45:21;;;;;;;;;;;;;;;;;;4962519;28;20088;-73
2023/02/26 13:47:46;;;;;;;;;;;;;;;;;;4976390;28;20403;-72
2023/02/26 13:50:12;;;;;;;;;;;;;;;;;;4970641;28;19922;-71
2023/02/26 13:52:37;;;;;;;;;;;;;;;;;;4959089;28;20007;-72
2023/02/26 13:55:02;;;;;;;;;;;;;;;;;;4961556;28;19921;-73
2023/02/26 13:57:28;;;;;;;;;;;;;;;;;;4977209;28;19984;-73
2023/02/26 13:59:56;;;;;;;;;;;;;;;;;;4977338;28;20301;-72
2023/02/26 14:02:21;;;;;;;;;;;;;;;;;;4976574;28;20325;-71
2023/02/26 14:04:46;;;;;;;;;;;;;;;;;;4972620;28;19917;-73
2023/02/26 14:07:11;;;;;;;;;;;;;;;;;;4961303;28;19940;-73
2023/02/26 14:09:37;;;;;;;;;;;;;;;;;;4958118;28;20364;-73
2023/02/26 14:12:05;;;;;;;;;;;;;;;;;;4957841;28;19922;-73
2023/02/26 14:14:30;;;;;;;;;;;;;;;;;;4973918;28;20349;-72
2023/02/26 14:16:55;;;;;;;;;;;;;;;;;;4959142;28;19983;-73
2023/02/26 14:19:23;;;;;;;;;;;;;;;;;;4977466;28;19928;-71
2023/02/26 14:21:49;;;;;;;;;;;;;;;;;;4938448;28;20529;-72
2023/02/26 14:24:15;;;;;;;;;;;;;;;;;;4973135;28;20028;-75
2023/02/26 14:26:40;;;;;;;;;;;;;;;;;;4939127;28;19920;-74
2023/02/26 14:29:05;;;;;;;;;;;;;;;;;;4974705;28;21260;-72
2023/02/26 14:31:31;;;;;;;;;;;;;;;;;;4972997;28;21457;-72
2023/02/26 14:33:57;;;;;;;;;;;;;;;;;;4956330;28;20401;-73
2023/02/26 14:36:22;;;;;;;;;;;;;;;;;;4943083;28;20404;-69
2023/02/26 14:38:47;;;;;;;;;;;;;;;;;;4973586;28;19929;-70
2023/02/26 14:41:16;;;;;;;;;;;;;;;;;;4959087;28;20498;-70
2023/02/26 14:43:41;;;;;;;;;;;;;;;;;;4976335;28;20002;-71
2023/02/26 14:46:07;;;;;;;;;;;;;;;;;;4975516;28;20336;-71
2023/02/26 14:48:32;;;;;;;;;;;;;;;;;;4967407;28;19922;-70
2023/02/26 14:50:58;;;;;;;;;;;;;;;;;;4959573;28;19933;-70
2023/02/26 14:53:23;;;;;;;;;;;;;;;;;;4969853;28;19952;-70
2023/02/26 14:55:51;;;;;;;;;;;;;;;;;;4950763;28;19922;-72
2023/02/26 14:58:20;;;;;;;;;;;;;;;;;;4960080;28;19917;-73
2023/02/26 15:00:45;;;;;;;;;;;;;;;;;;4964752;28;19933;-72
2023/02/26 15:03:12;;;;;;;;;;;;;;;;;;4970612;28;21490;-71
2023/02/26 15:05:37;;;;;;;;;;;;;;;;;;4975619;28;19983;-72
2023/02/26 15:08:02;;;;;;;;;;;;;;;;;;4953082;28;20455;-73
2023/02/26 15:10:28;;;;;;;;;;;;;;;;;;4974689;28;20300;-72
2023/02/26 15:12:54;;;;;;;;;;;;;;;;;;4970436;28;21149;-72
2023/02/26 15:15:19;;;;;;;;;;;;;;;;;;4973614;28;19921;-73
2023/02/26 15:17:45;;;;;;;;;;;;;;;;;;4954935;28;19921;-70
2023/02/26 15:20:10;;;;;;;;;;;;;;;;;;4956591;28;19929;-72
2023/02/26 15:22:35;;;;;;;;;;;;;;;;;;4973790;28;19917;-73
2023/02/26 15:25:01;;;;;;;;;;;;;;;;;;4958406;28;19921;-73
2023/02/26 15:27:27;;;;;;;;;;;;;;;;;;4962807;28;19922;-71
2023/02/26 15:29:55;;;;;;;;;;;;;;;;;;4971782;28;20344;-73
2023/02/26 15:32:20;;;;;;;;;;;;;;;;;;4971024;28;20080;-73
2023/02/26 15:34:46;;;;;;;;;;;;;;;;;;4974973;28;20133;-73
2023/02/26 15:37:11;;;;;;;;;;;;;;;;;;4970247;28;20104;-72
2023/02/26 15:39:43;;;;;;;;;;;;;;;;;;4956624;28;19925;-69
2023/02/26 15:42:08;;;;;;;;;;;;;;;;;;4961354;28;20784;-69
2023/02/26 15:44:36;;;;;;;;;;;;;;;;;;4962229;28;19918;-71
2023/02/26 15:47:01;;;;;;;;;;;;;;;;;;4942340;28;20021;-70
2023/02/26 15:49:28;;;;;;;;;;;;;;;;;;4940902;28;19918;-70
2023/02/26 15:51:54;;;;;;;;;;;;;;;;;;4944712;28;20013;-71
2023/02/26 15:54:19;;;;;;;;;;;;;;;;;;4925223;28;19932;-70
2023/02/26 15:56:44;;;;;;;;;;;;;;;;;;4961831;28;19961;-69
2023/02/26 15:59:12;;;;;;;;;;;;;;;;;;4945683;28;19964;-68
2023/02/26 16:01:40;;;;;;;;;;;;;;;;;;4941810;28;20443;-70
2023/02/26 16:04:08;;;;;;;;;;;;;;;;;;4944176;28;19953;-70
2023/02/26 16:06:36;;;;;;;;;;;;;;;;;;4941060;28;20325;-71
2023/02/26 16:09:01;;;;;;;;;;;;;;;;;;4923638;28;19921;-70
2023/02/26 16:11:27;;;;;;;;;;;;;;;;;;4943836;28;20388;-71
2023/02/26 16:13:52;;;;;;;;;;;;;;;;;;4939391;28;20027;-71
2023/02/26 16:16:20;;;;;;;;;;;;;;;;;;4959198;28;20644;-70
2023/02/26 16:18:45;;;;;;;;;;;;;;;;;;4959379;28;19922;-72
2023/02/26 16:21:11;;;;;;;;;;;;;;;;;;4946434;28;19984;-74
2023/02/26 16:23:36;;;;;;;;;;;;;;;;;;4958600;28;19922;-71
2023/02/26 16:26:04;;;;;;;;;;;;;;;;;;4958492;28;20452;-71
2023/02/26 16:28:29;;;;;;;;;;;;;;;;;;4960630;28;19932;-71
2023/02/26 16:30:58;;;;;;;;;;;;;;;;;;4956994;28;19922;-71
2023/02/26 16:33:23;;;;;;;;;;;;;;;;;;4957464;28;20413;-72
2023/02/26 16:35:48;;;;;;;;;;;;;;;;;;4941965;28;19930;-72
2023/02/26 16:38:14;;;;;;;;;;;;;;;;;;4936825;28;20033;-70
2023/02/26 16:40:39;;;;;;;;;;;;;;;;;;4950380;28;20016;-71
2023/02/26 16:43:07;;;;;;;;;;;;;;;;;;4939823;28;19924;-71
2023/02/26 16:45:32;;;;;;;;;;;;;;;;;;4960582;28;20016;-69
2023/02/26 16:47:57;;;;;;;;;;;;;;;;;;4977605;28;20336;-71
2023/02/26 16:50:23;;;;;;;;;;;;;;;;;;4960366;28;19918;-70
2023/02/26 16:52:48;;;;;;;;;;;;;;;;;;4978604;28;19922;-70
2023/02/26 16:55:17;;;;;;;;;;;;;;;;;;4954398;28;19928;-70
2023/02/26 16:57:46;;;;;;;;;;;;;;;;;;4974463;28;19929;-70
2023/02/26 17:00:16;;;;;;;;;;;;;;;;;;4957963;28;20302;-70
2023/02/26 17:02:43;;;;;;;;;;;;;;;;;;4960685;28;19953;-69
2023/02/26 17:05:11;;;;;;;;;;;;;;;;;;4954162;28;19953;-69
2023/02/26 17:07:36;;;;;;;;;;;;;;;;;;4980077;28;20376;-70
2023/02/26 17:10:04;;;;;;;;;;;;;;;;;;4961762;28;20443;-70
2023/02/26 17:12:29;;;;;;;;;;;;;;;;;;4963534;28;19929;-69
2023/02/26 17:14:55;;;;;;;;;;;;;;;;;;4979441;28;19917;-70
2023/02/26 17:17:23;;;;;;;;;;;;;;;;;;4977556;28;20655;-70